Time;durP1;ratioP1;P1;durP2;ratioP2;P2;SDS_P1;SDS_P2;PMS_P1;PMS_P2;Temp;Humidity;BMP_temperature;BMP_pressure;BME280_temperature;BME280_humidity;BME280_pressure;Samples;Min_cycle;Max_cycle;Signal;HPM_P1;HPM_P2
2024/03/17 00:01:04;;;;;;;9.55;3.65;;;3.00;99.90;;;;;;5064689;28;20037;-62
2024/03/17 00:03:30;;;;;;;11.70;4.07;;;2.90;99.90;;;;;;5067896;28;20574;-61
2024/03/17 00:06:01;;;;;;;9.95;4.07;;;2.80;99.90;;;;;;5063461;28;20028;-61
2024/03/17 00:08:27;;;;;;;11.40;4.88;;;2.80;99.90;;;;;;5064452;28;20053;-61
2024/03/17 00:10:56;;;;;;;12.82;4.10;;;2.70;99.90;;;;;;5068180;28;20060;-60
2024/03/17 00:13:22;;;;;;;11.05;4.57;;;2.90;99.90;;;;;;5069246;28;20071;-60
2024/03/17 00:15:51;;;;;;;11.20;3.90;;;3.00;99.90;;;;;;5062989;28;20123;-61
2024/03/17 00:18:17;;;;;;;12.40;4.95;;;3.10;99.90;;;;;;5066224;28;20024;-61
2024/03/17 00:20:43;;;;;;;10.32;4.38;;;3.10;99.90;;;;;;5068318;28;20025;-61
2024/03/17 00:23:11;;;;;;;15.15;4.65;;;3.00;99.90;;;;;;5070360;28;20024;-61
2024/03/17 00:25:37;;;;;;;12.20;3.92;;;3.00;99.90;;;;;;5070220;28;20039;-60
2024/03/17 00:28:03;;;;;;;13.57;4.30;;;3.00;99.90;;;;;;5058252;28;20435;-61
2024/03/17 00:30:29;;;;;;;9.52;4.20;;;2.90;99.90;;;;;;5066665;28;20028;-61
2024/03/17 00:32:55;;;;;;;11.45;4.00;;;2.80;99.90;;;;;;5066758;28;20045;-62
2024/03/17 00:35:21;;;;;;;10.35;4.20;;;2.70;99.90;;;;;;5063103;28;20068;-61
2024/03/17 00:37:48;;;;;;;12.55;3.78;;;2.60;99.90;;;;;;5068419;28;20472;-61
2024/03/17 00:40:14;;;;;;;9.32;4.00;;;2.40;99.90;;;;;;5066274;28;20424;-61
2024/03/17 00:42:40;;;;;;;13.10;4.50;;;2.30;99.90;;;;;;5067562;28;20013;-61
2024/03/17 00:45:06;;;;;;;11.05;4.57;;;2.20;99.90;;;;;;5060854;28;20021;-61
2024/03/17 00:47:32;;;;;;;16.48;4.50;;;2.20;99.90;;;;;;5067299;28;20020;-62
2024/03/17 00:49:58;;;;;;;16.73;4.93;;;2.10;99.90;;;;;;5060875;28;20446;-62
2024/03/17 00:52:24;;;;;;;12.27;4.90;;;2.10;99.90;;;;;;5065917;28;20017;-62
2024/03/17 00:54:49;;;;;;;11.98;4.63;;;2.00;99.90;;;;;;5057882;28;20091;-62
2024/03/17 00:57:18;;;;;;;12.88;4.53;;;1.90;99.90;;;;;;5063267;28;20059;-62
2024/03/17 00:59:44;;;;;;;11.02;4.45;;;1.90;99.90;;;;;;5065004;28;20028;-62
2024/03/17 01:02:12;;;;;;;15.27;4.88;;;1.80;99.90;;;;;;5062639;28;20364;-62
2024/03/17 01:04:39;;;;;;;11.18;4.53;;;1.80;99.90;;;;;;5064173;28;20021;-63
2024/03/17 01:07:05;;;;;;;11.25;4.70;;;1.70;99.90;;;;;;5068355;28;20031;-62
2024/03/17 01:09:30;;;;;;;11.70;5.00;;;1.60;99.90;;;;;;5060610;28;20421;-62
2024/03/17 01:11:56;;;;;;;11.60;5.00;;;1.60;99.90;;;;;;5066525;28;20044;-62
2024/03/17 01:14:22;;;;;;;16.73;6.10;;;1.50;99.90;;;;;;5068797;28;20059;-62
2024/03/17 01:16:47;;;;;;;17.38;6.45;;;1.80;99.90;;;;;;5074007;28;20025;-62
2024/03/17 01:19:13;;;;;;;15.65;6.35;;;1.70;99.90;;;;;;5076233;28;20059;-62
2024/03/17 01:21:38;;;;;;;14.50;5.50;;;2.00;99.90;;;;;;5075778;28;20028;-62
2024/03/17 01:24:04;;;;;;;14.10;5.82;;;2.30;99.90;;;;;;5074741;28;20055;-62
2024/03/17 01:26:30;;;;;;;15.80;5.18;;;2.40;99.90;;;;;;5077325;28;20023;-62
2024/03/17 01:28:55;;;;;;;17.67;5.70;;;2.50;99.90;;;;;;5078324;28;20057;-62
2024/03/17 01:31:21;;;;;;;14.88;5.20;;;2.50;99.90;;;;;;5081206;28;20656;-62
2024/03/17 01:33:46;;;;;;;17.60;5.78;;;2.40;99.90;;;;;;5081945;28;20032;-62
2024/03/17 01:36:12;;;;;;;11.68;4.88;;;2.40;99.90;;;;;;5082589;28;20058;-62
2024/03/17 01:38:38;;;;;;;16.27;5.15;;;2.50;99.90;;;;;;5076611;28;20068;-62
2024/03/17 01:41:04;;;;;;;16.77;5.75;;;2.60;99.90;;;;;;5080835;28;20479;-62
2024/03/17 01:43:30;;;;;;;15.07;5.63;;;2.80;99.90;;;;;;5081895;28;20016;-62
2024/03/17 01:45:58;;;;;;;16.67;5.35;;;2.80;99.90;;;;;;5077540;28;20761;-62
2024/03/17 01:48:24;;;;;;;15.48;5.72;;;2.90;99.90;;;;;;5079889;28;20027;-62
2024/03/17 01:50:53;;;;;;;13.00;4.75;;;2.80;99.90;;;;;;5078544;28;20395;-62
2024/03/17 01:53:19;;;;;;;16.10;5.22;;;2.70;99.90;;;;;;5084754;28;20031;-62
2024/03/17 01:55:47;;;;;;;13.73;5.30;;;2.60;99.90;;;;;;5076218;28;20389;-62
2024/03/17 01:58:13;;;;;;;12.68;4.57;;;2.60;99.90;;;;;;5082878;28;20032;-62
2024/03/17 02:00:39;;;;;;;13.52;5.13;;;2.70;99.90;;;;;;5077098;28;20075;-61
2024/03/17 02:03:06;;;;;;;12.48;4.60;;;2.80;99.90;;;;;;5079527;28;20016;-62
2024/03/17 02:05:33;;;;;;;11.52;5.00;;;2.90;99.90;;;;;;5080183;28;20114;-61
2024/03/17 02:07:59;;;;;;;9.82;4.30;;;3.00;99.90;;;;;;5078227;28;20059;-61
2024/03/17 02:10:25;;;;;;;12.57;4.40;;;3.00;99.90;;;;;;5080950;28;20048;-62
2024/03/17 02:12:51;;;;;;;12.25;4.45;;;3.00;99.90;;;;;;5079474;28;20032;-61
2024/03/17 02:15:17;;;;;;;11.75;5.00;;;3.00;99.90;;;;;;5080739;28;20048;-61
2024/03/17 02:17:44;;;;;;;10.70;4.43;;;3.00;99.90;;;;;;5082422;28;20039;-61
2024/03/17 02:20:11;;;;;;;16.20;4.75;;;3.10;99.90;;;;;;5078483;28;20101;-61
2024/03/17 02:22:37;;;;;;;14.13;5.65;;;3.20;99.90;;;;;;5078500;28;20600;-61
2024/03/17 02:25:03;;;;;;;13.98;4.63;;;3.20;99.90;;;;;;5072054;28;20022;-61
2024/03/17 02:27:29;;;;;;;12.98;5.00;;;3.30;99.90;;;;;;5079389;28;20098;-61
2024/03/17 02:29:55;;;;;;;13.05;5.00;;;3.30;99.90;;;;;;5077557;28;20032;-61
2024/03/17 02:32:22;;;;;;;14.45;5.43;;;3.30;99.90;;;;;;5079663;28;20085;-61
2024/03/17 02:34:48;;;;;;;14.68;5.57;;;3.30;99.90;;;;;;5073403;28;20577;-62
2024/03/17 02:37:14;;;;;;;19.98;5.38;;;3.30;99.90;;;;;;5078650;28;20088;-61
2024/03/17 02:39:40;;;;;;;13.48;4.90;;;3.30;99.90;;;;;;5079818;28;20559;-62
2024/03/17 02:42:07;;;;;;;11.57;4.85;;;3.30;99.90;;;;;;5078018;28;20419;-61
2024/03/17 02:44:35;;;;;;;16.10;5.30;;;3.20;99.90;;;;;;5077590;28;20028;-61
2024/03/17 02:47:03;;;;;;;10.98;4.35;;;3.20;99.90;;;;;;5075550;28;20062;-61
2024/03/17 02:49:36;;;;;;;14.00;5.22;;;3.30;99.90;;;;;;5081597;28;20107;-62
2024/03/17 02:52:03;;;;;;;12.45;4.88;;;3.30;99.90;;;;;;5076931;28;20038;-61
2024/03/17 02:54:28;;;;;;;15.27;5.03;;;3.40;99.90;;;;;;5076795;28;20020;-62
2024/03/17 02:56:54;;;;;;;14.00;5.35;;;3.40;99.90;;;;;;5078127;28;20035;-62
2024/03/17 02:59:19;;;;;;;12.20;4.78;;;3.40;99.90;;;;;;5069344;28;20087;-62
2024/03/17 03:01:45;;;;;;;12.70;5.20;;;3.40;99.90;;;;;;5078478;28;20028;-62
2024/03/17 03:04:11;;;;;;;10.27;4.32;;;3.40;99.90;;;;;;5079864;28;20430;-61
2024/03/17 03:06:38;;;;;;;15.13;5.00;;;3.40;99.90;;;;;;5079047;28;20073;-62
2024/03/17 03:09:09;;;;;;;12.93;4.85;;;3.40;99.90;;;;;;5077261;28;20111;-62
2024/03/17 03:11:35;;;;;;;15.00;5.55;;;3.40;99.90;;;;;;5073594;28;20031;-62
2024/03/17 03:14:02;;;;;;;12.13;4.88;;;3.40;99.90;;;;;;5072419;28;20371;-62
2024/03/17 03:16:28;;;;;;;14.57;5.95;;;3.40;99.90;;;;;;5078592;28;20036;-63
2024/03/17 03:18:54;;;;;;;13.98;5.13;;;3.40;99.90;;;;;;5073717;28;20025;-62
2024/03/17 03:21:21;;;;;;;14.25;5.25;;;3.40;99.90;;;;;;5077622;28;20042;-62
2024/03/17 03:23:47;;;;;;;13.93;5.53;;;3.40;99.90;;;;;;5069826;28;20033;-62
2024/03/17 03:26:13;;;;;;;16.55;5.93;;;3.40;99.90;;;;;;5077740;28;20039;-62
2024/03/17 03:28:39;;;;;;;12.80;5.28;;;3.50;99.90;;;;;;5080137;28;20021;-62
2024/03/17 03:31:04;;;;;;;13.48;5.28;;;3.50;99.90;;;;;;5080807;28;20383;-62
2024/03/17 03:33:30;;;;;;;14.77;5.70;;;3.50;99.90;;;;;;5074643;28;20027;-62
2024/03/17 03:35:56;;;;;;;13.23;5.75;;;3.50;99.90;;;;;;5081674;28;20137;-62
2024/03/17 03:38:22;;;;;;;13.30;5.38;;;3.50;99.90;;;;;;5080010;28;20036;-62
2024/03/17 03:40:48;;;;;;;15.73;5.78;;;3.50;99.90;;;;;;5077744;28;20108;-62
2024/03/17 03:43:14;;;;;;;16.63;5.25;;;3.50;99.90;;;;;;5073516;28;20551;-62
2024/03/17 03:45:41;;;;;;;14.50;5.20;;;3.50;99.90;;;;;;5072808;28;20021;-62
2024/03/17 03:48:10;;;;;;;15.35;6.00;;;3.50;99.90;;;;;;5073218;28;20110;-63
2024/03/17 03:50:38;;;;;;;17.38;6.18;;;3.60;99.90;;;;;;5075506;28;20032;-62
2024/03/17 03:53:05;;;;;;;12.68;5.60;;;3.60;99.90;;;;;;5075258;28;20028;-62
2024/03/17 03:55:30;;;;;;;14.93;5.40;;;3.60;99.90;;;;;;5077676;28;20020;-62
2024/03/17 03:57:56;;;;;;;15.15;5.65;;;3.60;99.90;;;;;;5068928;28;20623;-62
2024/03/17 04:00:23;;;;;;;14.52;6.03;;;3.70;99.90;;;;;;5073490;28;20031;-62
2024/03/17 04:02:51;;;;;;;15.75;5.35;;;3.70;99.90;;;;;;5078548;28;20027;-63
2024/03/17 04:05:20;;;;;;;15.82;5.70;;;3.70;99.90;;;;;;5077755;28;20048;-63
2024/03/17 04:07:48;;;;;;;12.68;6.10;;;3.70;99.90;;;;;;5075663;28;20103;-62
2024/03/17 04:10:14;;;;;;;14.85;6.30;;;3.60;99.90;;;;;;5079450;28;20016;-62
2024/03/17 04:12:40;;;;;;;15.57;5.68;;;3.60;99.90;;;;;;5073497;28;20111;-62
2024/03/17 04:15:06;;;;;;;13.15;5.60;;;3.50;99.90;;;;;;5079002;28;20736;-62
2024/03/17 04:17:33;;;;;;;14.35;5.60;;;3.50;99.90;;;;;;5072154;28;20029;-60
2024/03/17 04:19:59;;;;;;;13.40;5.63;;;3.50;99.90;;;;;;5071087;28;20032;-61
2024/03/17 04:22:24;;;;;;;14.63;5.47;;;3.50;99.90;;;;;;5072264;28;20082;-62
2024/03/17 04:24:54;;;;;;;18.00;6.47;;;3.50;99.90;;;;;;5076374;28;20468;-62
2024/03/17 04:27:38;;;;;;;18.83;6.43;;;3.60;99.90;;;;;;5071651;28;20023;-62
2024/03/17 04:30:05;;;;;;;14.85;5.85;;;3.60;99.90;;;;;;5074918;28;20035;-62
2024/03/17 04:32:31;;;;;;;15.27;5.22;;;3.70;99.90;;;;;;5073148;28;20502;-62
2024/03/17 04:34:57;;;;;;;16.38;5.82;;;3.70;99.90;;;;;;5079753;28;20452;-62
2024/03/17 04:37:22;;;;;;;14.60;5.75;;;3.70;99.90;;;;;;5082306;28;20043;-63
2024/03/17 04:39:48;;;;;;;16.40;6.43;;;3.70;99.90;;;;;;5074757;28;20033;-62
2024/03/17 04:42:15;;;;;;;15.32;6.18;;;3.70;99.90;;;;;;5074273;28;20114;-61
2024/03/17 04:44:42;;;;;;;19.70;6.30;;;3.70;99.90;;;;;;5073614;28;20067;-62
2024/03/17 04:47:08;;;;;;;15.82;6.13;;;3.70;99.90;;;;;;5076936;28;20020;-61
2024/03/17 04:49:40;;;;;;;16.77;6.05;;;3.80;99.90;;;;;;5073905;28;20099;-61
2024/03/17 04:52:07;;;;;;;15.80;6.35;;;3.80;99.90;;;;;;5076272;28;20030;-61
2024/03/17 04:54:33;;;;;;;16.15;6.63;;;3.90;99.90;;;;;;5080040;28;20085;-61
2024/03/17 04:56:59;;;;;;;12.35;5.05;;;3.90;99.90;;;;;;5073065;28;20421;-61
2024/03/17 04:59:24;;;;;;;16.60;6.25;;;4.00;99.90;;;;;;5073161;28;20036;-61
2024/03/17 05:01:50;;;;;;;18.20;6.93;;;4.00;99.90;;;;;;5075027;28;20590;-61
2024/03/17 05:04:16;;;;;;;15.75;6.28;;;4.00;99.90;;;;;;5077163;28;20077;-61
2024/03/17 05:06:46;;;;;;;18.45;6.68;;;4.00;99.90;;;;;;5077348;28;20021;-62
2024/03/17 05:09:14;;;;;;;20.55;7.20;;;4.00;99.90;;;;;;5067643;28;20040;-61
2024/03/17 05:11:41;;;;;;;15.52;6.82;;;3.90;99.90;;;;;;5078003;28;20032;-61
2024/03/17 05:14:08;;;;;;;18.63;6.82;;;3.90;99.90;;;;;;5078599;28;20013;-61
2024/03/17 05:16:34;;;;;;;19.55;6.43;;;3.80;99.90;;;;;;5071345;28;20044;-61
2024/03/17 05:19:00;;;;;;;18.77;6.80;;;3.80;99.90;;;;;;5075225;28;20025;-61
2024/03/17 05:21:26;;;;;;;19.80;6.85;;;3.80;99.90;;;;;;5080921;28;20048;-61
2024/03/17 05:23:52;;;;;;;16.67;7.10;;;3.70;99.90;;;;;;5078729;28;20395;-61
2024/03/17 05:26:18;;;;;;;15.35;6.40;;;3.60;99.90;;;;;;5077239;28;20450;-61
2024/03/17 05:28:46;;;;;;;14.35;5.70;;;4.50;99.90;;;;;;5073003;28;20059;-63
2024/03/17 05:31:15;;;;;;;15.63;6.10;;;3.50;99.90;;;;;;5069290;28;20028;-63
2024/03/17 05:33:40;;;;;;;15.35;5.68;;;3.50;99.90;;;;;;5073679;28;20032;-63
2024/03/17 05:36:06;;;;;;;15.68;5.75;;;3.50;99.90;;;;;;5076634;28;20039;-62
2024/03/17 05:38:32;;;;;;;16.45;6.22;;;3.60;99.90;;;;;;5075661;28;20030;-62
2024/03/17 05:41:08;;;;;;;17.90;6.70;;;3.50;99.90;;;;;;5077456;28;20104;-63
2024/03/17 05:43:36;;;;;;;16.80;6.50;;;3.50;99.90;;;;;;5077087;28;20012;-62
2024/03/17 05:46:06;;;;;;;20.23;7.22;;;3.50;99.90;;;;;;5077699;28;20032;-63
2024/03/17 05:48:38;;;;;;;17.73;7.00;;;3.40;99.90;;;;;;5082373;28;20407;-63
2024/03/17 05:51:05;;;;;;;20.42;7.22;;;3.40;99.90;;;;;;5080378;28;20024;-63
2024/03/17 05:53:34;;;;;;;16.60;6.38;;;3.30;99.90;;;;;;5082605;28;20055;-63
2024/03/17 05:56:00;;;;;;;22.20;7.07;;;3.20;99.90;;;;;;5078474;28;20380;-62
2024/03/17 05:58:26;;;;;;;16.08;6.30;;;3.20;99.90;;;;;;5081488;28;20106;-63
2024/03/17 06:00:52;;;;;;;18.25;6.35;;;3.10;99.90;;;;;;5079870;28;20055;-63
2024/03/17 06:03:17;;;;;;;19.70;6.95;;;3.00;99.90;;;;;;5080370;28;20104;-62
2024/03/17 06:05:46;;;;;;;20.52;6.70;;;3.00;99.90;;;;;;5081563;28;20054;-63
2024/03/17 06:08:12;;;;;;;17.85;7.15;;;3.00;99.90;;;;;;5072899;28;20402;-63
2024/03/17 06:10:43;;;;;;;21.77;7.20;;;3.10;99.90;;;;;;5084317;28;20043;-63
2024/03/17 06:13:12;;;;;;;17.13;6.55;;;3.20;99.90;;;;;;5082317;28;20017;-62
2024/03/17 06:15:39;;;;;;;20.45;7.55;;;3.20;99.90;;;;;;5084566;28;20491;-62
2024/03/17 06:18:06;;;;;;;17.30;7.10;;;3.20;99.90;;;;;;5082616;28;20032;-62
2024/03/17 06:20:32;;;;;;;18.33;7.22;;;3.20;99.90;;;;;;5082688;28;20020;-62
2024/03/17 06:22:57;;;;;;;17.48;6.47;;;3.10;99.90;;;;;;5082754;28;20517;-62
2024/03/17 06:25:26;;;;;;;17.50;7.53;;;3.10;99.90;;;;;;5081555;28;20345;-62
2024/03/17 06:27:52;;;;;;;15.85;6.72;;;3.10;99.90;;;;;;5082616;28;20498;-63
2024/03/17 06:30:18;;;;;;;19.10;7.97;;;3.20;99.90;;;;;;5082161;28;20017;-63
2024/03/17 06:32:45;;;;;;;15.35;6.72;;;3.30;99.90;;;;;;5081152;28;20067;-63
2024/03/17 06:35:11;;;;;;;20.45;7.60;;;3.30;99.90;;;;;;5079777;28;20028;-63
2024/03/17 06:37:38;;;;;;;18.13;7.13;;;3.40;99.90;;;;;;5081735;28;20024;-62
2024/03/17 06:40:05;;;;;;;20.92;7.57;;;3.40;99.90;;;;;;5081613;28;20098;-62
2024/03/17 06:42:31;;;;;;;20.50;6.82;;;3.40;99.90;;;;;;5080516;28;20031;-62
2024/03/17 06:44:57;;;;;;;16.63;7.53;;;3.40;99.90;;;;;;5081081;28;20053;-62
2024/03/17 06:47:22;;;;;;;19.48;7.57;;;3.50;99.90;;;;;;5081592;28;20352;-62
2024/03/17 06:49:48;;;;;;;17.67;7.28;;;3.50;99.90;;;;;;5079471;28;20035;-62
2024/03/17 06:52:14;;;;;;;20.00;9.23;;;3.50;99.90;;;;;;5079975;28;20024;-62
2024/03/17 06:54:39;;;;;;;21.85;9.45;;;3.90;99.90;;;;;;5079212;28;20027;-62
2024/03/17 06:57:06;;;;;;;19.48;7.20;;;3.60;99.90;;;;;;5078733;28;20016;-63
2024/03/17 06:59:34;;;;;;;17.17;7.32;;;3.80;99.90;;;;;;5081985;28;20496;-61
2024/03/17 07:01:59;;;;;;;18.38;7.45;;;4.10;99.90;;;;;;5080260;28;20025;-62
2024/03/17 07:04:25;;;;;;;21.02;7.28;;;4.10;99.90;;;;;;5084007;28;20370;-62
2024/03/17 07:06:51;;;;;;;18.65;7.97;;;4.20;99.90;;;;;;5084003;28;20024;-62
2024/03/17 07:09:17;;;;;;;19.45;7.68;;;4.40;99.90;;;;;;5078514;28;20456;-62
2024/03/17 07:11:44;;;;;;;20.13;8.15;;;4.50;99.90;;;;;;5083144;28;20020;-62
2024/03/17 07:14:09;;;;;;;16.45;7.05;;;4.60;99.90;;;;;;5083106;28;20032;-62
2024/03/17 07:16:35;;;;;;;19.88;7.13;;;4.60;99.90;;;;;;5081014;28;20051;-62
2024/03/17 07:19:04;;;;;;;17.65;7.15;;;4.80;99.90;;;;;;5082378;28;20031;-62
2024/03/17 07:21:31;;;;;;;17.15;7.20;;;4.80;99.90;;;;;;5081274;28;20600;-63
2024/03/17 07:23:59;;;;;;;17.50;6.88;;;5.00;99.90;;;;;;5082863;28;20103;-62
2024/03/17 07:26:25;;;;;;;16.15;6.20;;;5.00;99.90;;;;;;5079802;28;20017;-62
2024/03/17 07:28:50;;;;;;;22.05;7.10;;;5.10;99.90;;;;;;5082326;28;20078;-62
2024/03/17 07:31:16;;;;;;;17.65;6.50;;;5.20;99.90;;;;;;5082571;28;20019;-62
2024/03/17 07:33:42;;;;;;;17.58;6.75;;;5.40;99.90;;;;;;5081653;28;20029;-63
2024/03/17 07:36:10;;;;;;;16.38;6.45;;;5.50;99.90;;;;;;5077482;28;20032;-62
2024/03/17 07:38:36;;;;;;;15.30;6.30;;;5.80;99.90;;;;;;5083924;28;20035;-62
2024/03/17 07:41:06;;;;;;;14.13;5.97;;;5.90;99.90;;;;;;5083952;28;20054;-62
2024/03/17 07:43:37;;;;;;;18.05;6.68;;;6.10;99.90;;;;;;5082521;28;20360;-62
2024/03/17 07:46:04;;;;;;;15.30;6.38;;;6.10;99.90;;;;;;5080936;28;20027;-62
2024/03/17 07:48:31;;;;;;;15.20;6.45;;;6.30;99.90;;;;;;5084367;28;20020;-62
2024/03/17 07:51:11;;;;;;;14.43;6.47;;;6.30;99.90;;;;;;5079811;28;20081;-63
2024/03/17 07:53:38;;;;;;;17.27;5.88;;;6.50;99.90;;;;;;5080768;28;20078;-62
2024/03/17 07:56:06;;;;;;;13.27;5.80;;;6.80;99.90;;;;;;5080049;28;20028;-62
2024/03/17 07:58:33;;;;;;;14.07;5.82;;;7.10;99.90;;;;;;5081413;28;20429;-62
2024/03/17 08:01:06;;;;;;;14.07;6.15;;;7.50;99.90;;;;;;5080132;28;20027;-63
2024/03/17 08:03:35;;;;;;;14.30;5.68;;;7.90;99.90;;;;;;5081069;28;20103;-62
2024/03/17 08:06:02;;;;;;;14.63;5.47;;;8.10;99.90;;;;;;5079571;28;20050;-62
2024/03/17 08:08:28;;;;;;;12.38;5.30;;;8.30;99.90;;;;;;5082770;28;20036;-63
2024/03/17 08:10:54;;;;;;;16.80;5.45;;;8.50;99.90;;;;;;5080522;28;20028;-62
2024/03/17 08:13:20;;;;;;;17.80;5.68;;;8.60;99.90;;;;;;5077253;28;20024;-62
2024/03/17 08:15:54;;;;;;;20.23;5.85;;;8.60;99.90;;;;;;5082872;28;20109;-62
2024/03/17 08:18:19;;;;;;;13.38;5.03;;;8.70;99.90;;;;;;5079555;28;20028;-62
2024/03/17 08:20:46;;;;;;;12.00;5.28;;;8.80;99.90;;;;;;5079159;28;20039;-62
2024/03/17 08:23:13;;;;;;;12.02;4.90;;;8.90;99.90;;;;;;5080737;28;20040;-62
2024/03/17 08:25:39;;;;;;;13.35;4.97;;;8.90;99.90;;;;;;5080251;28;20206;-62
2024/03/17 08:28:04;;;;;;;12.48;4.70;;;9.00;99.90;;;;;;5081462;28;20103;-62
2024/03/17 08:30:30;;;;;;;11.73;5.30;;;9.20;99.90;;;;;;5084036;28;20044;-62
2024/03/17 08:32:56;;;;;;;11.80;4.93;;;9.50;99.90;;;;;;5077028;28;20032;-62
2024/03/17 08:35:22;;;;;;;14.15;4.80;;;9.70;99.90;;;;;;5079522;28;20032;-63
2024/03/17 08:37:48;;;;;;;10.10;4.88;;;9.80;99.90;;;;;;5076776;28;20034;-62
2024/03/17 08:40:13;;;;;;;12.02;4.82;;;10.00;99.90;;;;;;5077445;28;20028;-63
2024/03/17 08:42:40;;;;;;;11.20;4.22;;;10.10;99.90;;;;;;5069904;28;20051;-62
2024/03/17 08:45:06;;;;;;;11.25;4.70;;;10.20;99.90;;;;;;5079222;28;20020;-62
2024/03/17 08:47:31;;;;;;;10.38;4.50;;;10.20;99.90;;;;;;5076077;28;20051;-63
2024/03/17 08:49:58;;;;;;;11.05;4.65;;;10.30;99.90;;;;;;5078496;28;20032;-63
2024/03/17 08:52:24;;;;;;;13.80;4.55;;;10.50;99.90;;;;;;5058749;28;20308;-63
2024/03/17 08:54:52;;;;;;;9.93;4.32;;;10.60;99.90;;;;;;5070076;28;20121;-62
2024/03/17 08:57:18;;;;;;;14.70;5.03;;;10.70;99.90;;;;;;5054025;28;20099;-62
2024/03/17 08:59:47;;;;;;;9.65;4.43;;;10.90;99.90;;;;;;5061478;28;20037;-63
2024/03/17 09:02:14;;;;;;;11.23;4.43;;;11.00;99.90;;;;;;5062295;28;20052;-63
2024/03/17 09:04:43;;;;;;;11.93;4.65;;;11.10;99.90;;;;;;5056144;28;20028;-63
2024/03/17 09:07:08;;;;;;;9.55;3.83;;;11.20;99.90;;;;;;5058219;28;20048;-62
2024/03/17 09:09:34;;;;;;;9.02;4.00;;;11.30;99.90;;;;;;5059414;28;20637;-63
2024/03/17 09:12:00;;;;;;;12.57;4.18;;;11.30;99.90;;;;;;5052644;28;20044;-63
2024/03/17 09:14:25;;;;;;;11.55;4.65;;;11.40;99.90;;;;;;5057697;28;20413;-63
2024/03/17 09:16:51;;;;;;;10.43;3.90;;;11.70;99.90;;;;;;5059148;28;20143;-63
2024/03/17 09:19:17;;;;;;;10.95;4.15;;;11.70;99.90;;;;;;5062585;28;20030;-63
2024/03/17 09:21:42;;;;;;;10.73;3.95;;;12.10;99.90;;;;;;5065129;28;20052;-63
2024/03/17 09:24:08;;;;;;;8.75;3.60;;;12.70;99.90;;;;;;5060992;28;20024;-62
2024/03/17 09:26:34;;;;;;;7.93;3.55;;;13.30;99.40;;;;;;5055122;28;20025;-63
2024/03/17 09:29:03;;;;;;;8.77;3.53;;;13.80;97.30;;;;;;5057198;28;20507;-62
2024/03/17 09:31:28;;;;;;;7.82;3.38;;;14.40;96.90;;;;;;5060039;28;20044;-62
2024/03/17 09:33:54;;;;;;;8.33;3.40;;;14.70;96.40;;;;;;5054157;28;20021;-63
2024/03/17 09:36:20;;;;;;;8.50;3.45;;;14.70;94.90;;;;;;5061683;28;20110;-63
2024/03/17 09:38:46;;;;;;;8.68;3.80;;;14.40;95.60;;;;;;5055619;28;20032;-62
2024/03/17 09:41:28;;;;;;;10.77;3.42;;;14.40;95.80;;;;;;5057717;28;20104;-63
2024/03/17 09:43:55;;;;;;;10.02;3.30;;;14.50;97.30;;;;;;5057706;28;20052;-62
2024/03/17 09:46:23;;;;;;;6.90;2.90;;;15.20;94.60;;;;;;5064685;28;20024;-63
2024/03/17 09:48:49;;;;;;;7.43;2.67;;;15.90;92.00;;;;;;5062239;28;20020;-62
2024/03/17 09:51:23;;;;;;;7.53;3.03;;;15.80;91.20;;;;;;5062104;28;20032;-62
2024/03/17 09:53:50;;;;;;;8.85;3.10;;;15.80;92.00;;;;;;5061390;28;20036;-63
2024/03/17 09:56:20;;;;;;;8.02;3.53;;;15.70;91.20;;;;;;5060618;28;20040;-63
2024/03/17 09:58:46;;;;;;;;;;;15.40;92.50;;;;;;5064631;28;20024;-64
2024/03/17 10:01:12;;;;;;;8.18;2.95;;;15.10;94.00;;;;;;5067082;28;20395;-62
2024/03/17 10:04:05;;;;;;;8.13;3.22;;;14.90;94.40;;;;;;5061528;28;20055;-63
2024/03/17 10:06:31;;;;;;;8.18;3.53;;;14.70;94.80;;;;;;5055920;28;20039;-62
2024/03/17 10:08:59;;;;;;;8.27;3.17;;;14.60;95.20;;;;;;5064086;28;20029;-61
2024/03/17 10:11:33;;;;;;;8.63;3.47;;;14.60;95.80;;;;;;5055681;28;20021;-63
2024/03/17 10:14:07;;;;;;;8.23;3.10;;;14.90;94.70;;;;;;5064857;28;20489;-62
2024/03/17 10:16:34;;;;;;;9.02;3.20;;;15.10;95.10;;;;;;5062360;28;20041;-62
2024/03/17 10:19:21;;;;;;;7.57;3.20;;;15.20;95.40;;;;;;5065327;28;20021;-62
2024/03/17 10:21:48;;;;;;;9.07;3.17;;;15.40;94.60;;;;;;5065830;28;20024;-62
2024/03/17 10:24:19;;;;;;;9.23;2.88;;;15.50;93.40;;;;;;5059687;28;20023;-62
2024/03/17 10:26:51;;;;;;;10.63;2.72;;;15.50;92.10;;;;;;5052199;28;20376;-62
2024/03/17 10:29:25;;;;;;;7.38;2.80;;;15.30;93.60;;;;;;5059787;28;20021;-63
2024/03/17 10:31:55;;;;;;;7.60;3.13;;;15.00;94.10;;;;;;5065491;28;20051;-62
2024/03/17 10:34:25;;;;;;;9.50;3.35;;;14.90;94.20;;;;;;5063185;28;20036;-62
2024/03/17 10:37:13;;;;;;;8.77;3.00;;;14.70;94.70;;;;;;5066255;28;20040;-63
2024/03/17 10:39:40;;;;;;;8.88;3.13;;;14.50;96.00;;;;;;5065113;28;20028;-62
2024/03/17 10:42:08;;;;;;;8.40;3.10;;;14.30;96.00;;;;;;5056182;28;20032;-62
2024/03/17 10:44:40;;;;;;;8.38;2.90;;;14.00;97.60;;;;;;5060678;28;20111;-63
2024/03/17 10:47:09;;;;;;;7.82;2.92;;;13.90;96.10;;;;;;5063469;28;20029;-62
2024/03/17 10:49:38;;;;;;;9.23;3.28;;;13.70;96.10;;;;;;5055832;28;20025;-63
2024/03/17 10:52:04;;;;;;;9.73;3.33;;;13.50;97.40;;;;;;5060256;28;20025;-63
2024/03/17 10:54:30;;;;;;;7.20;3.10;;;13.50;96.30;;;;;;5057301;28;20047;-63
2024/03/17 10:57:02;;;;;;;9.65;3.17;;;13.50;96.90;;;;;;5051584;28;20036;-63
2024/03/17 10:59:41;;;;;;;9.65;3.28;;;13.60;95.70;;;;;;5058000;28;20032;-61
2024/03/17 11:02:27;;;;;;;8.80;3.40;;;13.70;94.60;;;;;;5064735;28;20026;-63
2024/03/17 11:04:58;;;;;;;9.23;3.20;;;13.70;96.20;;;;;;5056694;28;20057;-62
2024/03/17 11:07:26;;;;;;;11.25;3.40;;;13.80;97.10;;;;;;5062596;28;20036;-63
2024/03/17 11:09:54;;;;;;;8.20;3.15;;;13.90;98.10;;;;;;5064269;28;20044;-62
2024/03/17 11:12:44;;;;;;;8.43;3.47;;;14.20;95.90;;;;;;5061347;28;20577;-63
2024/03/17 11:15:18;;;;;;;9.18;2.78;;;14.40;94.50;;;;;;5058403;28;20095;-62
2024/03/17 11:17:52;;;;;;;9.02;2.60;;;14.70;95.90;;;;;;5059637;28;20388;-63
2024/03/17 11:20:24;;;;;;;6.90;2.60;;;15.00;94.60;;;;;;5060528;28;20024;-62
2024/03/17 11:22:52;;;;;;;7.30;2.53;;;14.90;95.30;;;;;;5060486;28;20481;-62
2024/03/17 11:25:38;;;;;;;8.75;2.78;;;15.10;95.90;;;;;;5060046;28;20028;-62
2024/03/17 11:28:09;;;;;;;8.43;3.03;;;15.40;94.10;;;;;;5061524;28;20017;-63
2024/03/17 11:30:43;;;;;;;7.53;3.00;;;15.60;93.00;;;;;;5065401;28;20017;-63
2024/03/17 11:33:31;;;;;;;7.63;2.70;;;15.70;91.10;;;;;;5057600;28;20464;-64
2024/03/17 11:36:22;;;;;;;8.88;2.80;;;16.30;92.50;;;;;;5066274;28;20032;-63
2024/03/17 11:38:58;;;;;;;6.90;2.70;;;17.00;88.00;;;;;;5055542;28;20108;-63
2024/03/17 11:41:34;;;;;;;8.43;3.30;;;16.90;87.30;;;;;;5059310;28;20017;-64
2024/03/17 11:44:18;;;;;;;8.55;2.90;;;16.80;89.40;;;;;;5057791;28;20052;-63
2024/03/17 11:46:45;;;;;;;7.07;3.00;;;16.90;85.20;;;;;;5064282;28;21169;-64
2024/03/17 11:49:31;;;;;;;12.02;3.10;;;16.70;87.00;;;;;;5061263;28;20101;-63
2024/03/17 11:52:02;;;;;;;9.25;3.30;;;16.80;87.90;;;;;;5058417;28;20032;-64
2024/03/17 11:54:30;;;;;;;9.50;3.15;;;16.70;87.50;;;;;;5057049;28;20067;-63
2024/03/17 11:57:03;;;;;;;7.47;3.00;;;16.60;90.50;;;;;;5064249;28;20637;-64
2024/03/17 11:59:29;;;;;;;6.90;2.70;;;17.00;87.30;;;;;;5059169;28;20028;-64
2024/03/17 12:01:55;;;;;;;8.40;3.17;;;17.50;85.10;;;;;;5062429;28;20024;-64
2024/03/17 12:04:23;;;;;;;7.53;3.05;;;17.90;79.40;;;;;;5056530;28;20029;-63
2024/03/17 12:06:50;;;;;;;8.25;3.30;;;17.40;80.60;;;;;;5060076;28;20028;-64
2024/03/17 12:09:24;;;;;;;10.45;2.70;;;17.20;83.00;;;;;;5064868;28;20108;-64
2024/03/17 12:12:11;;;;;;;7.78;2.97;;;16.90;81.20;;;;;;5059470;28;20078;-64
2024/03/17 12:14:38;;;;;;;8.75;3.25;;;16.50;85.10;;;;;;5061490;28;20033;-64
2024/03/17 12:17:07;;;;;;;9.98;3.38;;;16.30;85.90;;;;;;5059969;28;20472;-64
2024/03/17 12:19:33;;;;;;;8.18;3.03;;;16.30;87.10;;;;;;5064560;28;20033;-64
2024/03/17 12:21:59;;;;;;;7.15;2.38;;;16.30;89.80;;;;;;5058961;28;20024;-64
2024/03/17 12:24:34;;;;;;;7.45;2.63;;;16.30;88.00;;;;;;5063265;28;20059;-64
2024/03/17 12:27:02;;;;;;;9.32;3.03;;;16.20;88.30;;;;;;5056875;28;20052;-62
2024/03/17 12:29:37;;;;;;;9.00;3.15;;;16.30;86.10;;;;;;5058866;28;20075;-63
2024/03/17 12:32:05;;;;;;;7.93;2.90;;;16.30;84.30;;;;;;5059053;28;20687;-64
2024/03/17 12:34:32;;;;;;;8.10;3.10;;;16.10;88.90;;;;;;5055979;28;20655;-64
2024/03/17 12:36:59;;;;;;;9.88;3.47;;;16.40;86.30;;;;;;5055689;28;20083;-63
2024/03/17 12:39:32;;;;;;;6.93;2.80;;;16.90;83.30;;;;;;5057843;28;20060;-63
2024/03/17 12:42:05;;;;;;;8.30;3.00;;;17.50;83.10;;;;;;5058183;28;20021;-63
2024/03/17 12:44:37;;;;;;;8.73;2.83;;;18.30;75.70;;;;;;5060470;28;20044;-63
2024/03/17 12:47:04;;;;;;;9.27;3.00;;;18.30;76.00;;;;;;5059072;28;20409;-64
2024/03/17 12:49:32;;;;;;;7.32;3.40;;;18.30;75.20;;;;;;5061868;28;20021;-64